Stagecoach, Nevada
Current Conditions -  °F | °C
As of 6:55 PM on Tuesday 25 Nov 2014 (Local Time) from KCXP Reporting Station
Clear Clear  
Wind Chill: 41°   Ceiling: Unl
Heat Index: 41°   Visibility: 10mi
Dew Point: 25°   Wind: 0mph
Humidity: 53%   Direction: NA
Pressure: 30.45"   Gusts: NA
Location:  39.3955°N, 119.266°W
Report Text: KCXP 260255Z AUTO 00000KT 10SM CLR 05/M04 A3045 RMK AO2
Loading
Personal Weather Stations






























Interactive Weather Map New forecast layout! Learn more

10-Day Weather Forecast

Advertisements
Track Severe Weather on mobile